Time;durP1;ratioP1;P1;durP2;ratioP2;P2;SDS_P1;SDS_P2;PMS_P1;PMS_P2;Temp;Humidity;BMP_temperature;BMP_pressure;BME280_temperature;BME280_humidity;BME280_pressure;Samples;Min_cycle;Max_cycle;Signal;HPM_P1;HPM_P2
2021/11/15 00:08:37;;;;;;;17.63;10.55;;;;;;;9.37;80.98;101033.09;20993088;28;20037;-70
2021/11/15 00:18:39;;;;;;;18.60;11.52;;;;;;;9.25;81.64;101031.38;20993173;28;20045;-72
2021/11/15 00:28:41;;;;;;;17.60;11.00;;;;;;;9.26;80.93;101043.56;20991091;28;20514;-71
2021/11/15 00:38:43;;;;;;;18.85;11.75;;;;;;;9.31;80.36;101036.59;20989550;28;20045;-70
2021/11/15 00:48:44;;;;;;;19.77;11.52;;;;;;;9.18;81.01;101038.31;20990802;28;20036;-71
2021/11/15 00:58:46;;;;;;;19.15;11.90;;;;;;;9.20;81.63;101041.81;20988662;28;20460;-71
2021/11/15 01:08:47;;;;;;;19.63;12.05;;;;;;;9.18;81.48;101047.91;20988008;28;20455;-70
2021/11/15 01:18:50;;;;;;;21.65;12.25;;;;;;;9.15;81.13;101058.34;20985911;28;20461;-71
2021/11/15 01:28:52;;;;;;;24.55;14.38;;;;;;;9.05;81.66;101039.16;20986944;28;20044;-70
2021/11/15 01:38:54;;;;;;;21.92;13.77;;;;;;;8.99;81.61;101034.81;20985188;28;20049;-71
2021/11/15 01:48:55;;;;;;;21.40;12.75;;;;;;;9.00;81.51;101031.34;20985697;28;20106;-71
2021/11/15 01:58:57;;;;;;;23.65;14.30;;;;;;;9.04;81.75;101036.56;20984951;28;20052;-70
2021/11/15 02:08:58;;;;;;;23.35;13.40;;;;;;;8.93;81.75;101042.66;20983845;28;20106;-71
2021/11/15 02:19:00;;;;;;;25.70;14.20;;;;;;;8.92;81.33;101033.09;20983646;28;20097;-70
2021/11/15 02:29:02;;;;;;;22.65;13.05;;;;;;;8.80;81.34;101038.28;20982641;28;20098;-70
2021/11/15 02:39:05;;;;;;;20.60;11.32;;;;;;;8.74;80.21;101038.28;20981681;28;20388;-69
2021/11/15 02:49:06;;;;;;;20.20;10.70;;;;;;;8.64;79.93;101036.50;20982705;28;20155;-70
2021/11/15 02:59:08;;;;;;;19.63;10.63;;;;;;;8.66;79.06;101034.75;20982070;28;20425;-70
2021/11/15 03:09:09;;;;;;;20.25;10.50;;;;;;;8.59;79.37;101028.66;20980865;28;20444;-71
2021/11/15 03:19:11;;;;;;;18.13;9.95;;;;;;;8.53;78.45;101032.97;20980514;28;20060;-70
2021/11/15 03:29:13;;;;;;;21.77;10.65;;;;;;;8.45;80.04;101031.25;20979309;28;20048;-72
2021/11/15 03:39:16;;;;;;;20.60;10.95;;;;;;;8.41;79.12;101032.09;20988373;28;20464;-70
2021/11/15 03:49:18;;;;;;;18.48;10.25;;;;;;;8.43;78.83;101021.66;20995162;28;20497;-72
2021/11/15 03:59:19;;;;;;;20.98;10.00;;;;;;;8.36;78.41;101019.88;20993321;28;20420;-71
2021/11/15 04:09:21;;;;;;;21.92;10.75;;;;;;;8.28;78.98;101022.44;20992573;28;20053;-71
2021/11/15 04:19:22;;;;;;;22.40;10.60;;;;;;;8.23;78.90;101013.72;20992112;28;20045;-71
2021/11/15 04:29:24;;;;;;;23.63;11.75;;;;;;;8.22;78.92;101017.22;20991311;28;20041;-71
2021/11/15 04:39:25;;;;;;;24.63;10.80;;;;;;;8.21;80.18;101018.06;20989971;28;20575;-73
2021/11/15 04:49:27;;;;;;;24.75;12.18;;;;;;;8.14;79.11;101026.72;20989759;28;20053;-73
2021/11/15 04:59:28;;;;;;;19.75;11.57;;;;;;;8.15;78.46;101018.06;20988588;28;20056;-71
2021/11/15 05:09:30;;;;;;;21.15;10.60;;;;;;;8.13;78.96;101019.78;20987189;28;20045;-71
2021/11/15 05:19:32;;;;;;;24.25;11.63;;;;;;;8.05;78.76;101019.75;20986942;28;20045;-72
2021/11/15 05:29:33;;;;;;;24.20;11.95;;;;;;;8.00;79.10;101031.00;20985908;28;20040;-72
2021/11/15 05:39:35;;;;;;;21.73;11.15;;;;;;;8.00;79.57;101028.41;20985209;28;20509;-70
2021/11/15 05:49:37;;;;;;;19.85;10.88;;;;;;;7.95;79.66;101037.09;20985045;28;20084;-71
2021/11/15 05:59:38;;;;;;;22.77;10.50;;;;;;;7.86;80.74;101050.09;20983686;28;20048;-71
2021/11/15 06:09:40;;;;;;;21.27;10.88;;;;;;;7.84;80.19;101048.31;20983007;28;20395;-71
2021/11/15 06:19:42;;;;;;;21.15;12.27;;;;;;;7.86;78.69;101051.81;20983159;28;20052;-70
2021/11/15 06:29:45;;;;;;;21.63;11.52;;;;;;;7.80;78.81;101057.84;20983430;28;20059;-71
2021/11/15 06:39:48;;;;;;;20.65;10.85;;;;;;;7.67;79.65;101066.47;20987721;28;20056;-71
2021/11/15 06:49:52;;;;;;;20.38;11.70;;;;;;;7.56;80.11;101078.53;20983014;28;20044;-70
2021/11/15 06:59:53;;;;;;;18.33;10.60;;;;;;;7.56;80.35;101081.13;20980841;28;20049;-70
2021/11/15 07:09:55;;;;;;;18.02;10.10;;;;;;;7.54;80.72;101082.88;20982272;28;20056;-70
2021/11/15 07:19:56;;;;;;;18.50;9.93;;;;;;;7.52;80.48;101095.00;20996745;28;20053;-71
2021/11/15 07:30:05;;;;;;;15.98;9.57;;;;;;;7.55;80.88;101100.25;20995710;28;20078;-71
2021/11/15 07:40:10;;;;;;;18.73;9.75;;;;;;;7.53;80.38;101101.97;20994025;28;20057;-73
2021/11/15 07:50:13;;;;;;;17.80;9.85;;;;;;;7.60;80.67;101094.22;20994281;28;20048;-70
2021/11/15 08:00:21;;;;;;;18.42;9.95;;;;;;;7.58;80.48;101095.94;20993617;28;20165;-71
2021/11/15 08:10:23;;;;;;;16.63;9.75;;;;;;;7.54;80.62;101093.31;20979205;28;20478;-71
2021/11/15 08:20:28;;;;;;;16.73;9.13;;;;;;;7.63;80.62;101098.59;20949124;28;20094;-70
2021/11/15 08:30:30;;;;;;;15.52;8.75;;;;;;;7.64;80.45;101108.16;20963306;28;20040;-71
2021/11/15 08:40:32;;;;;;;16.13;9.40;;;;;;;7.53;80.95;101107.19;20935975;28;20045;-72
2021/11/15 08:50:34;;;;;;;18.27;9.60;;;;;;;7.58;81.00;101106.38;20902393;28;20099;-72
2021/11/15 09:00:37;;;;;;;19.60;10.10;;;;;;;7.54;80.68;101098.50;20898746;28;20763;-71
2021/11/15 09:10:39;;;;;;;16.45;9.13;;;;;;;7.62;80.71;101107.28;20907906;28;20506;-73
2021/11/15 09:20:41;;;;;;;17.15;9.45;;;;;;;7.56;80.33;101094.16;20981127;28;20052;-71
2021/11/15 09:30:44;;;;;;;15.95;8.30;;;;;;;7.57;79.65;101099.41;20979313;28;20040;-71
2021/11/15 09:40:49;;;;;;;16.25;8.23;;;;;;;7.71;78.96;101107.31;20978310;28;20052;-71
2021/11/15 09:50:52;;;;;;;13.13;6.88;;;;;;;7.69;79.07;101116.88;20980493;28;20090;-71
2021/11/15 10:00:57;;;;;;;14.52;6.88;;;;;;;7.69;79.02;101117.72;20978653;28;20045;-71
2021/11/15 10:11:00;;;;;;;12.85;7.00;;;;;;;7.64;79.43;101110.75;20968527;28;20056;-71
2021/11/15 10:21:13;;;;;;;21.33;7.80;;;;;;;7.73;79.41;101105.59;20895973;28;20139;-71
2021/11/15 10:31:37;;;;;;;18.42;9.50;;;;;;;7.74;78.97;101091.69;20895738;28;20498;-71
2021/11/15 10:41:38;;;;;;;14.63;6.90;;;;;;;7.77;79.33;101088.25;20894011;28;20106;-71
2021/11/15 10:52:07;;;;;;;14.35;7.82;;;;;;;7.86;79.30;101101.38;20909138;28;20044;-71
2021/11/15 11:02:26;;;;;;;15.35;7.78;;;;;;;7.87;79.04;101090.94;20908799;28;20049;-71
2021/11/15 11:12:44;;;;;;;17.38;7.68;;;;;;;7.86;79.44;101078.75;20973076;28;20044;-71
2021/11/15 11:23:17;;;;;;;15.90;8.90;;;;;;;7.88;79.32;101065.72;20993595;28;20490;-71
2021/11/15 11:33:19;;;;;;;17.48;8.52;;;;;;;7.76;79.77;101053.50;20989120;28;20070;-71
2021/11/15 11:43:21;;;;;;;18.95;8.32;;;;;;;7.97;78.99;101037.97;20984119;28;20074;-70
2021/11/15 11:53:26;;;;;;;17.45;9.10;;;;;;;7.96;79.47;101041.44;20987123;28;20044;-71
2021/11/15 12:03:29;;;;;;;17.30;9.15;;;;;;;7.91;79.69;101037.94;20985421;28;20098;-70
2021/11/15 12:13:45;;;;;;;17.92;9.38;;;;;;;7.90;79.87;101022.28;20985538;28;20082;-71
2021/11/15 12:23:51;;;;;;;18.33;9.32;;;;;;;7.87;79.46;101004.88;20985473;28;20489;-71
2021/11/15 12:34:04;;;;;;;18.07;9.73;;;;;;;7.98;80.01;101012.75;20984540;28;20098;-71
2021/11/15 12:44:12;;;;;;;20.65;9.52;;;;;;;7.91;79.96;101021.44;20983852;28;20489;-73
2021/11/15 12:54:13;;;;;;;20.40;9.88;;;;;;;8.01;79.30;101014.53;20983311;28;20048;-74
2021/11/15 13:04:15;;;;;;;21.05;10.05;;;;;;;7.88;79.62;101001.41;20983320;28;20583;-74
2021/11/15 13:14:16;;;;;;;20.65;10.02;;;;;;;7.85;79.33;101001.38;20942303;28;20186;-72
2021/11/15 13:24:20;;;;;;;22.85;11.52;;;;;;;7.77;79.98;100992.69;20897522;28;20114;-69
2021/11/15 13:34:21;;;;;;;22.73;11.32;;;;;;;7.84;79.27;100989.22;20907611;28;20044;-69
2021/11/15 13:44:23;;;;;;;21.92;10.50;;;;;;;7.81;80.01;100984.00;20976760;28;20447;-75
2021/11/15 13:54:25;;;;;;;23.15;11.65;;;;;;;7.86;79.52;100984.91;20977542;28;20048;-75
2021/11/15 14:04:27;;;;;;;25.65;12.43;;;;;;;7.70;80.35;100980.47;20977277;28;20048;-77
2021/11/15 14:14:29;;;;;;;23.33;11.95;;;;;;;7.77;80.16;100982.25;20976654;28;20101;-75
2021/11/15 14:24:35;;;;;;;21.73;11.57;;;;;;;7.75;80.30;100983.97;20975851;28;20632;-75
2021/11/15 14:34:43;;;;;;;23.60;11.02;;;;;;;7.85;79.68;100985.75;20975791;28;20077;-74
2021/11/15 14:44:46;;;;;;;27.42;12.85;;;;;;;7.75;79.89;100978.75;20976658;28;20044;-74
2021/11/15 14:54:50;;;;;;;25.60;12.35;;;;;;;7.78;79.83;100977.91;20974776;28;20049;-70
2021/11/15 15:04:52;;;;;;;24.85;12.57;;;;;;;7.86;79.44;100982.31;20974222;28;20430;-71
2021/11/15 15:14:56;;;;;;;26.73;12.68;;;;;;;7.70;80.67;100980.47;20931076;28;20052;-70
2021/11/15 15:24:59;;;;;;;26.40;12.20;;;;;;;7.69;80.17;100987.41;20899166;28;20086;-70
2021/11/15 15:35:00;;;;;;;27.40;13.18;;;;;;;7.79;79.70;100996.16;20910603;28;20099;-70
2021/11/15 15:45:04;;;;;;;30.80;15.15;;;;;;;7.67;80.37;100985.69;20904698;28;20041;-73
2021/11/15 15:55:06;;;;;;;35.97;21.90;;;;;;;7.63;80.44;100992.59;20912449;28;20045;-70
2021/11/15 16:16:14;;;;;;;29.00;14.05;;;;;;;7.74;80.10;100991.78;20949803;28;20055;-70
2021/11/15 16:26:05;;;;;;;32.53;15.73;;;;;;;7.82;79.88;101000.53;20980839;28;20470;-70
2021/11/15 16:36:06;;;;;;;32.33;15.05;;;;;;;7.69;80.49;101005.66;20984173;28;20102;-70
2021/11/15 16:46:08;;;;;;;30.75;14.32;;;;;;;7.67;80.22;101006.53;20985674;28;20113;-71
2021/11/15 16:56:28;;;;;;;30.83;14.90;;;;;;;7.64;80.71;101011.72;20983056;28;20064;-70
2021/11/15 17:06:30;;;;;;;33.40;18.13;;;;;;;7.67;80.40;101006.53;20980748;28;20075;-70
2021/11/15 17:16:33;;;;;;;33.78;16.75;;;;;;;7.58;81.18;101011.69;20923515;28;20654;-70
2021/11/15 17:26:34;;;;;;;33.95;16.17;;;;;;;7.55;81.11;101012.53;20896418;28;20048;-72
2021/11/15 17:36:36;;;;;;;34.58;16.90;;;;;;;7.55;81.58;101002.09;20957137;28;20048;-71
2021/11/15 17:46:40;;;;;;;31.73;16.88;;;;;;;7.64;80.78;101009.09;20973342;28;20394;-71
2021/11/15 17:56:47;;;;;;;36.65;18.60;;;;;;;7.60;80.90;101016.03;20974331;28;20055;-71
2021/11/15 18:06:49;;;;;;;37.78;18.20;;;;;;;7.59;81.03;101027.31;20974994;28;20149;-71
2021/11/15 18:16:51;;;;;;;37.05;17.80;;;;;;;7.68;80.54;101008.25;20975651;28;20460;-71
2021/11/15 18:26:56;;;;;;;36.53;17.60;;;;;;;7.56;81.42;101006.44;20956685;28;20071;-71
2021/11/15 18:36:57;;;;;;;34.13;17.58;;;;;;;7.54;81.69;101004.69;20974349;28;20457;-71
2021/11/15 18:46:59;;;;;;;34.63;17.58;;;;;;;7.53;81.53;100993.41;20971884;28;20063;-71
2021/11/15 18:57:01;;;;;;;38.92;18.10;;;;;;;7.52;82.06;100993.38;20972981;28;20044;-70
2021/11/15 19:07:06;;;;;;;35.38;17.27;;;;;;;7.46;82.78;100986.41;21042940;28;20052;-71
2021/11/15 19:17:10;;;;;;;35.20;16.95;;;;;;;7.38;82.71;100993.31;21010884;28;20044;-71
2021/11/15 19:27:11;;;;;;;35.65;17.00;;;;;;;7.41;82.71;100995.91;20988766;28;20390;-70
2021/11/15 19:37:13;;;;;;;33.83;16.33;;;;;;;7.38;83.20;101001.13;20986238;28;20752;-70
2021/11/15 19:47:15;;;;;;;34.40;17.40;;;;;;;7.29;83.46;100999.31;20987560;28;20481;-71
2021/11/15 19:57:17;;;;;;;36.38;17.33;;;;;;;7.36;83.14;101011.53;20986389;28;20097;-70
2021/11/15 20:07:18;;;;;;;36.63;17.08;;;;;;;7.32;83.50;101020.16;20984394;28;20621;-70
2021/11/15 20:17:23;;;;;;;36.15;17.67;;;;;;;7.26;83.97;101014.91;20920108;28;20132;-71
2021/11/15 20:27:25;;;;;;;35.97;18.98;;;;;;;7.27;84.17;101011.44;20902053;28;20123;-70
2021/11/15 20:37:27;;;;;;;50.75;20.58;;;;;;;7.30;83.80;101021.91;20899183;28;20061;-71
2021/11/15 20:47:29;;;;;;;39.17;18.65;;;;;;;7.27;84.21;101024.47;20899160;28;20057;-71
2021/11/15 20:57:31;;;;;;;35.28;17.98;;;;;;;7.36;83.67;101014.13;20923245;28;20057;-72
2021/11/15 21:07:33;;;;;;;39.55;19.55;;;;;;;7.34;83.63;101028.88;20980063;28;20045;-73
2021/11/15 21:17:34;;;;;;;37.22;19.88;;;;;;;7.26;84.07;101030.56;20980909;28;20061;-72
2021/11/15 21:27:36;;;;;;;40.90;20.67;;;;;;;7.41;83.83;101025.44;20978147;28;20045;-72
2021/11/15 21:37:38;;;;;;;37.63;18.63;;;;;;;7.31;84.25;101034.06;20977077;28;20045;-72
2021/11/15 21:47:40;;;;;;;35.10;18.30;;;;;;;7.31;83.68;101033.19;20980158;28;20044;-72
2021/11/15 21:57:42;;;;;;;40.13;18.98;;;;;;;7.29;83.79;101035.78;20979014;28;20447;-72
2021/11/15 22:07:44;;;;;;;41.10;19.70;;;;;;;7.25;84.09;101039.22;20975350;28;20652;-72
2021/11/15 22:17:47;;;;;;;42.75;20.23;;;;;;;7.36;84.08;101040.19;20906700;28;20095;-72
2021/11/15 22:27:49;;;;;;;39.97;19.15;;;;;;;7.28;84.47;101039.28;20892609;28;20102;-72
2021/11/15 22:37:50;;;;;;;39.53;18.77;;;;;;;7.32;84.51;101046.22;20891930;28;20049;-72
2021/11/15 22:47:52;;;;;;;37.40;18.25;;;;;;;7.39;84.66;101041.94;20891695;28;20103;-72
2021/11/15 22:57:54;;;;;;;34.95;18.10;;;;;;;7.26;85.49;101024.47;20891847;28;20518;-72
2021/11/15 23:07:58;;;;;;;38.17;18.15;;;;;;;7.27;85.14;101014.06;20940054;28;20050;-72
2021/11/15 23:18:01;;;;;;;36.55;18.67;;;;;;;7.23;85.05;101014.88;20981592;28;20394;-72
2021/11/15 23:28:05;;;;;;;38.17;19.02;;;;;;;7.38;84.21;101021.97;20980390;28;20420;-72
2021/11/15 23:38:09;;;;;;;43.20;19.60;;;;;;;7.31;84.69;101033.19;20979304;28;20056;-72
2021/11/15 23:48:11;;;;;;;39.77;19.47;;;;;;;7.34;84.53;101021.06;20979183;28;20045;-72
2021/11/15 23:58:13;;;;;;;43.10;19.70;;;;;;;7.28;84.81;101023.63;20989928;28;20053;-71
